Pagrindinis puslapis
METAR-TAF:

METAR-TAF

Oro uostai :

Zamboanga, Filipinai

platuma: 06-54N, ilguma: 122-04E, Aukštis: 5 m

Dabartinis oras

Ataskaita buvo paskelbta 2 valandos ir 22 minutes, ne 18:00 UTC
Vėjas 3 kt iš Šiaurės Rytų
Temperatūra 25°C
Drėgmė 89%
Slėgis 1010 hPa
Matomumas 10 km arba daugiau
Mažai debesys ne aukštis 1700 ft
Su prošvaistėmis ne aukštis 30000 ft

METAR: RPMZ 201800Z 05003KT 9999 FEW017 BKN300 25/23 Q1010 RMK A2983

Laikas: 04:22 (20:22 UTC)

Prognozė

Ataskaita buvo paskelbta 3 valandos ir 22 minutes, ne 17:00 UTC
Prognozė galioja nuo 20 metu 18 UTC su 21 metu 18 UTC
Vėjas 6 kt iš Rytų/Pietryčių
Matomumas 10 km arba daugiau
Mažai debesys ne aukštis 1700 ft
Išsisklaidę debesys ne aukštis 30000 ft
Laikinai
nuo 20 metu 18 UTC su 20 metu 24 UTC
Vėjas 2 kt nuo kintamojo kryptimis
Mažai debesys ne aukštis 1700 ft
Su prošvaistėmis ne aukštis 9000 ft

TAF: RPMZ 201700Z 2018/2118 12006KT 9999 FEW017 SCT300 TEMPO 2018/2024 VRB02KT FEW017 BKN090

Orai ataskaitas ir orų prognozės (METAR, TAF).

turimą stotys yra geltonos ir raudonos taškus žemėlapyje.

Perkelti pele per norėdami pamatyti stoties vardą.

Tada spustelėkite, norėdami matyti oro stebėjimo ir prognozės.

Norėdami pakeisti žemėlapį: spustelėkite ant žalios mygtukų su juodo kryžiaus žemyn,; žalią mygtuką su brūkšneliu, jei norite nutolinti; arba žalių rodyklių gretimoms žemėlapius.


METAR-TAF: